YPBO

Paraburdoo Airport

Airport
ICAO code
YPBO
IATA Code
PBO
Summary
ICAO Region
APAC
ICAO Territory
Location

, Western Australia

Serving
Paraburdoo
Elevation
1406 ft
Coordinates
23° 10' 16" S , 117° 44' 42" E
Metar
Observation
YPBO 240801Z AUTO 26015G25KT 9999 // NCD 32/06 Q1010
Station
Paraburdoo Airport
Date/Time
2022-09-24 08:01:00
Wind direction
260°
Wind speed
15 kts
Lowest cloud amount
no clouds detected
Temperature
32°C
Dew point
6°C
Humidity
19%
QNH
1010 hPa
Weather condition
n/a

Airport map

Aerial View

SKYbrary Partners:

Safety knowledge contributed by: